createdAt,value
2022-10-19T00:01:43.646Z,7.15
2022-10-19T00:04:10.281Z,6.85
2022-10-19T00:06:37.512Z,6.88
2022-10-19T00:09:13.185Z,7.57
2022-10-19T00:11:41.968Z,6.57
2022-10-19T00:14:11.311Z,6.82
2022-10-19T00:16:38.738Z,7.30
2022-10-19T00:19:09.892Z,7.20
2022-10-19T00:21:36.682Z,7.00
2022-10-19T00:24:03.513Z,7.00
2022-10-19T00:26:30.180Z,10.43
2022-10-19T00:28:57.455Z,11.80
2022-10-19T00:31:24.913Z,11.02
2022-10-19T00:33:51.908Z,9.27
2022-10-19T00:36:24.617Z,8.25
2022-10-19T00:38:51.601Z,5.75
2022-10-19T00:41:19.448Z,7.70
2022-10-19T00:43:52.233Z,6.72
2022-10-19T00:46:18.836Z,7.47
2022-10-19T00:48:45.660Z,8.27
2022-10-19T00:51:12.661Z,6.85
2022-10-19T00:53:39.551Z,7.53
2022-10-19T00:56:10.625Z,7.20
2022-10-19T00:58:37.251Z,6.60
2022-10-19T01:01:05.953Z,7.85
2022-10-19T01:03:33.559Z,6.15
2022-10-19T01:06:00.852Z,6.47
2022-10-19T01:08:27.957Z,7.30
2022-10-19T01:11:19.031Z,6.53
2022-10-19T01:14:04.494Z,6.30
2022-10-19T01:16:31.127Z,6.43
2022-10-19T01:19:28.598Z,5.68
2022-10-19T01:22:23.973Z,6.22
2022-10-19T01:25:05.563Z,6.38
2022-10-19T01:27:57.486Z,5.82
2022-10-19T01:31:05.790Z,6.25
2022-10-19T01:33:41.315Z,5.70
2022-10-19T01:36:19.758Z,5.93
2022-10-19T01:39:01.308Z,6.28
2022-10-19T01:42:11.282Z,6.90
2022-10-19T01:45:01.162Z,6.20
2022-10-19T01:47:40.106Z,6.20
2022-10-19T01:50:11.549Z,6.40
2022-10-19T01:52:39.767Z,6.88
2022-10-19T01:55:08.440Z,6.50
2022-10-19T01:57:42.289Z,6.45
2022-10-19T02:00:11.364Z,6.78
2022-10-19T02:02:43.757Z,6.20
2022-10-19T02:05:11.658Z,7.00
2022-10-19T02:07:40.737Z,6.07
2022-10-19T02:10:08.294Z,6.47
2022-10-19T02:12:35.963Z,6.07
2022-10-19T02:15:07.939Z,6.60
2022-10-19T02:17:38.375Z,6.50
2022-10-19T02:20:05.602Z,6.10
2022-10-19T02:22:32.480Z,6.57
2022-10-19T02:24:59.518Z,6.47
2022-10-19T02:27:26.320Z,6.72
2022-10-19T02:29:53.902Z,7.30
2022-10-19T02:32:20.709Z,6.65
2022-10-19T02:34:47.443Z,6.43
2022-10-19T02:37:14.307Z,6.97
2022-10-19T02:39:40.944Z,6.65
2022-10-19T02:42:07.589Z,6.63
2022-10-19T02:44:41.683Z,6.13
2022-10-19T02:47:15.083Z,5.88
2022-10-19T02:49:42.804Z,5.30
2022-10-19T02:52:11.052Z,6.38
2022-10-19T02:54:38.495Z,5.80
2022-10-19T02:57:25.873Z,5.43
2022-10-19T02:59:52.912Z,5.20
2022-10-19T03:02:20.469Z,5.82
2022-10-19T03:07:20.782Z,4.72
2022-10-19T03:09:47.523Z,5.45
2022-10-19T03:12:14.574Z,5.15
2022-10-19T03:14:41.335Z,5.07
2022-10-19T03:17:08.265Z,4.60
2022-10-19T03:19:35.737Z,4.85
2022-10-19T03:22:02.724Z,5.43
2022-10-19T03:24:30.382Z,5.05
2022-10-19T03:26:57.010Z,5.38
2022-10-19T03:29:23.649Z,4.78
2022-10-19T03:31:50.305Z,5.45
2022-10-19T03:34:16.970Z,4.63
2022-10-19T03:36:43.739Z,5.28
2022-10-19T03:39:13.747Z,4.88
2022-10-19T03:41:40.737Z,5.43
2022-10-19T03:44:08.347Z,5.38
2022-10-19T03:46:36.122Z,6.68
2022-10-19T03:49:03.477Z,6.50
2022-10-19T03:51:31.406Z,6.95
2022-10-19T03:54:00.630Z,7.03
2022-10-19T03:56:31.461Z,6.88
2022-10-19T03:58:59.644Z,7.35
2022-10-19T04:01:33.956Z,9.00
2022-10-19T04:04:03.207Z,8.20
2022-10-19T04:06:35.796Z,9.30
2022-10-19T04:09:03.344Z,8.70
2022-10-19T04:11:31.327Z,7.85
2022-10-19T04:13:59.376Z,7.22
2022-10-19T04:16:27.886Z,7.05
2022-10-19T04:18:54.792Z,6.68
2022-10-19T04:21:30.614Z,7.15
2022-10-19T04:24:02.858Z,6.82
2022-10-19T04:26:29.594Z,6.38
2022-10-19T04:29:00.062Z,6.57
2022-10-19T04:31:27.955Z,6.45
2022-10-19T04:33:54.954Z,7.18
2022-10-19T04:36:21.679Z,6.15
2022-10-19T04:38:48.330Z,7.50
2022-10-19T04:41:18.158Z,6.65
2022-10-19T04:43:45.395Z,6.97
2022-10-19T04:46:17.913Z,6.50
2022-10-19T04:48:45.705Z,7.40
2022-10-19T04:51:13.695Z,7.45
2022-10-19T04:53:41.646Z,7.85
2022-10-19T04:56:13.150Z,8.45
2022-10-19T04:58:40.018Z,11.88
2022-10-19T05:01:17.423Z,11.48
2022-10-19T05:03:44.785Z,12.43
2022-10-19T05:06:12.409Z,13.48
2022-10-19T05:08:39.089Z,12.25
2022-10-19T05:11:11.496Z,12.93
2022-10-19T05:13:38.389Z,11.77
2022-10-19T05:16:06.577Z,11.23
2022-10-19T05:18:34.289Z,15.07
2022-10-19T05:21:21.926Z,13.52
2022-10-19T05:23:52.295Z,14.27
2022-10-19T05:26:20.402Z,15.05
2022-10-19T05:28:58.351Z,12.38
2022-10-19T05:31:27.895Z,13.55
2022-10-19T05:33:56.398Z,13.18
2022-10-19T05:36:26.885Z,13.38
2022-10-19T05:38:55.667Z,14.93
2022-10-19T05:41:23.382Z,10.98
2022-10-19T05:43:55.256Z,12.18
2022-10-19T05:46:22.481Z,11.52
2022-10-19T05:48:49.298Z,10.57
2022-10-19T05:51:18.875Z,11.50
2022-10-19T05:53:45.719Z,12.55
2022-10-19T05:56:20.735Z,12.40
2022-10-19T05:58:47.784Z,12.07
2022-10-19T06:01:15.020Z,12.43
2022-10-19T06:03:43.492Z,12.07
2022-10-19T06:06:10.542Z,10.52
2022-10-19T06:08:38.097Z,10.73
2022-10-19T06:11:25.844Z,12.52
2022-10-19T06:13:55.344Z,11.73
2022-10-19T06:16:26.399Z,12.68
2022-10-19T06:18:57.920Z,12.55
2022-10-19T06:21:27.874Z,12.52
2022-10-19T06:23:57.028Z,12.15
2022-10-19T06:26:26.671Z,11.68
2022-10-19T06:28:57.958Z,11.20
2022-10-19T06:31:24.617Z,10.80
2022-10-19T06:33:51.952Z,11.18
2022-10-19T06:36:32.723Z,11.07
2022-10-19T06:39:03.842Z,12.20
2022-10-19T06:41:31.644Z,10.70
2022-10-19T06:44:15.805Z,11.30
2022-10-19T06:46:42.464Z,11.82
2022-10-19T06:49:14.066Z,11.75
2022-10-19T06:51:42.185Z,12.32
2022-10-19T06:54:09.977Z,10.63
2022-10-19T06:56:36.655Z,11.43
2022-10-19T06:59:06.015Z,10.75
2022-10-19T07:01:32.670Z,9.75
2022-10-19T07:03:59.338Z,9.02
2022-10-19T07:06:27.774Z,10.02
2022-10-19T07:08:54.422Z,9.20
2022-10-19T07:11:24.858Z,9.63
2022-10-19T07:13:53.400Z,10.15
2022-10-19T07:16:21.177Z,10.20
2022-10-19T07:18:49.492Z,10.52
2022-10-19T07:21:16.711Z,10.15
2022-10-19T07:23:44.630Z,9.52
2022-10-19T07:26:16.616Z,11.05
2022-10-19T07:28:44.848Z,11.05
2022-10-19T07:31:14.602Z,10.52
2022-10-19T07:33:41.307Z,11.55
2022-10-19T07:36:10.191Z,13.23
2022-10-19T07:38:38.206Z,11.02
2022-10-19T07:41:12.939Z,11.13
2022-10-19T07:43:40.471Z,11.70
2022-10-19T07:46:09.965Z,11.27
2022-10-19T07:48:36.579Z,12.52
2022-10-19T07:51:05.900Z,11.70
2022-10-19T07:53:33.196Z,12.85
2022-10-19T07:56:08.247Z,12.75
2022-10-19T07:58:36.344Z,11.95
2022-10-19T08:01:06.861Z,12.20
2022-10-19T08:06:21.809Z,11.98
2022-10-19T08:08:50.688Z,13.27
2022-10-19T08:11:24.813Z,12.30
2022-10-19T08:13:54.533Z,11.25
2022-10-19T08:16:21.147Z,12.85
2022-10-19T08:18:51.376Z,13.02
2022-10-19T08:21:25.195Z,13.15
2022-10-19T08:23:52.223Z,12.90
2022-10-19T08:26:21.592Z,13.88
2022-10-19T08:28:48.290Z,14.23
2022-10-19T08:31:17.435Z,14.48
2022-10-19T08:33:44.954Z,14.70
2022-10-19T08:36:12.918Z,14.65
2022-10-19T08:38:41.397Z,14.07
2022-10-19T08:41:26.816Z,16.25
2022-10-19T08:44:33.845Z,14.80
2022-10-19T08:47:06.086Z,15.25
2022-10-19T08:49:34.864Z,17.17
2022-10-19T08:52:18.493Z,14.90
2022-10-19T08:54:54.164Z,15.65
2022-10-19T08:57:38.298Z,15.50
2022-10-19T09:00:23.157Z,14.43
2022-10-19T09:02:58.878Z,14.48
2022-10-19T09:05:49.733Z,15.25
2022-10-19T09:08:17.937Z,14.60
2022-10-19T09:10:49.362Z,14.35
2022-10-19T09:13:41.683Z,15.38
2022-10-19T09:16:21.112Z,13.38
2022-10-19T09:18:47.796Z,13.55
2022-10-19T09:21:30.972Z,13.60
2022-10-19T09:24:06.703Z,12.00
2022-10-19T09:26:37.157Z,12.23
2022-10-19T09:29:24.534Z,11.82
2022-10-19T09:34:35.312Z,9.23
2022-10-19T09:37:02.315Z,8.50
2022-10-19T09:39:30.331Z,6.90
2022-10-19T09:42:10.069Z,6.80
2022-10-19T09:44:37.636Z,7.28
2022-10-19T09:47:36.887Z,6.70
2022-10-19T09:50:23.974Z,7.50
2022-10-19T09:52:52.954Z,6.43
2022-10-19T09:55:29.997Z,6.32
2022-10-19T09:58:18.041Z,5.22
2022-10-19T10:00:50.504Z,4.60
2022-10-19T10:03:40.788Z,4.97
2022-10-19T10:06:10.637Z,4.38
2022-10-19T10:08:40.714Z,4.57
2022-10-19T10:11:11.411Z,4.35
2022-10-19T10:13:40.933Z,3.75
2022-10-19T10:16:14.152Z,3.30
2022-10-19T10:18:58.745Z,3.40
2022-10-19T10:21:34.938Z,2.85
2022-10-19T10:24:11.020Z,2.42
2022-10-19T10:26:53.480Z,2.03
2022-10-19T10:29:34.782Z,2.35
2022-10-19T10:32:09.157Z,2.13
2022-10-19T10:34:50.121Z,2.10
2022-10-19T10:37:22.927Z,2.78
2022-10-19T10:39:55.764Z,2.58
2022-10-19T10:42:40.341Z,3.45
2022-10-19T10:45:18.944Z,3.10
2022-10-19T10:47:48.311Z,2.60
2022-10-19T10:50:26.769Z,2.80
2022-10-19T10:53:01.282Z,2.70
2022-10-19T10:55:29.223Z,2.30
2022-10-19T10:58:43.352Z,2.38
2022-10-19T11:01:23.715Z,2.47
2022-10-19T11:04:02.261Z,2.60
2022-10-19T11:06:30.225Z,2.25
2022-10-19T11:09:17.837Z,2.80
2022-10-19T11:11:46.666Z,2.80
2022-10-19T11:14:25.666Z,2.25
2022-10-19T11:16:53.455Z,2.60
2022-10-19T11:19:30.324Z,2.47
2022-10-19T11:22:15.904Z,2.50
2022-10-19T11:25:04.438Z,2.60
2022-10-19T11:27:49.148Z,2.17
2022-10-19T11:30:21.192Z,2.35
2022-10-19T11:33:27.133Z,2.33
2022-10-19T11:36:05.238Z,1.77
2022-10-19T11:38:39.566Z,1.85
2022-10-19T11:41:43.953Z,1.70
2022-10-19T11:44:13.626Z,1.88
2022-10-19T11:47:09.609Z,1.98
2022-10-19T11:50:11.747Z,2.00
2022-10-19T11:53:16.180Z,2.30
2022-10-19T11:56:06.908Z,2.58
2022-10-19T11:59:18.294Z,2.05
2022-10-19T12:01:56.753Z,2.25
2022-10-19T12:04:29.513Z,2.30
2022-10-19T12:07:06.880Z,2.72
2022-10-19T12:10:12.419Z,2.58
2022-10-19T12:12:44.513Z,2.55
2022-10-19T12:15:11.089Z,2.10
2022-10-19T12:17:39.948Z,2.30
2022-10-19T12:20:18.900Z,2.50
2022-10-19T12:22:48.598Z,2.13
2022-10-19T12:25:16.590Z,2.67
2022-10-19T12:27:47.063Z,2.65
2022-10-19T12:30:22.612Z,2.00
2022-10-19T12:33:18.920Z,2.33
2022-10-19T12:36:10.520Z,2.50
2022-10-19T12:39:00.619Z,2.28
2022-10-19T12:41:45.310Z,2.42
2022-10-19T12:44:17.607Z,2.47
2022-10-19T12:46:52.460Z,2.30
2022-10-19T12:49:26.549Z,2.10
2022-10-19T12:51:54.476Z,2.17
2022-10-19T12:54:27.471Z,2.10
2022-10-19T12:56:57.937Z,2.13
2022-10-19T12:59:30.131Z,1.67
2022-10-19T13:01:57.254Z,1.90
2022-10-19T13:04:26.995Z,2.22
2022-10-19T13:06:56.523Z,2.00
2022-10-19T13:09:45.936Z,1.85
2022-10-19T13:12:19.517Z,1.70
2022-10-19T13:14:54.322Z,2.00
2022-10-19T13:17:41.481Z,1.65
2022-10-19T13:20:14.392Z,1.55
2022-10-19T13:22:45.637Z,1.58
2022-10-19T13:25:27.850Z,1.73
2022-10-19T13:28:02.392Z,1.75
2022-10-19T13:30:38.352Z,1.52
2022-10-19T13:33:31.431Z,1.58
2022-10-19T13:36:07.846Z,1.83
2022-10-19T13:41:27.977Z,1.63
2022-10-19T13:44:13.702Z,1.60
2022-10-19T13:46:46.329Z,1.48
2022-10-19T13:49:12.946Z,1.70
2022-10-19T13:51:58.036Z,1.33
2022-10-19T13:54:37.130Z,1.80
2022-10-19T13:57:36.969Z,1.23
2022-10-19T14:00:13.199Z,1.23
2022-10-19T14:03:25.718Z,1.33
2022-10-19T14:06:23.522Z,1.50
2022-10-19T14:09:11.486Z,1.10
2022-10-19T14:11:40.462Z,1.35
2022-10-19T14:14:27.995Z,1.10
2022-10-19T14:17:03.144Z,1.17
2022-10-19T14:19:42.513Z,1.42
2022-10-19T14:22:33.925Z,1.90
2022-10-19T14:25:07.712Z,1.30
2022-10-19T14:27:36.762Z,1.23
2022-10-19T14:30:07.573Z,1.05
2022-10-19T14:32:35.167Z,1.60
2022-10-19T14:35:19.451Z,1.20
2022-10-19T14:37:46.218Z,1.30
2022-10-19T14:40:28.028Z,1.40
2022-10-19T14:42:57.017Z,1.25
2022-10-19T14:45:31.950Z,1.33
2022-10-19T14:48:09.061Z,1.38
2022-10-19T14:50:54.654Z,1.45
2022-10-19T14:53:33.475Z,1.55
2022-10-19T14:56:08.809Z,1.30
2022-10-19T14:59:00.948Z,0.95
2022-10-19T15:01:27.637Z,1.27
2022-10-19T15:03:54.663Z,1.40
2022-10-19T15:06:30.376Z,1.25
2022-10-19T15:09:30.254Z,1.38
2022-10-19T15:12:17.854Z,1.42
2022-10-19T15:14:45.763Z,1.50
2022-10-19T15:17:27.400Z,1.20
2022-10-19T15:20:00.016Z,1.73
2022-10-19T15:22:33.199Z,1.33
2022-10-19T15:25:21.931Z,1.70
2022-10-19T15:27:50.823Z,1.90
2022-10-19T15:30:19.898Z,1.52
2022-10-19T15:33:11.308Z,1.92
2022-10-19T15:35:40.516Z,2.05
2022-10-19T15:38:10.773Z,1.42
2022-10-19T15:40:44.446Z,1.75
2022-10-19T15:43:44.157Z,1.70
2022-10-19T15:46:13.827Z,1.70
2022-10-19T15:48:40.400Z,2.33
2022-10-19T15:51:27.245Z,2.30
2022-10-19T15:54:02.366Z,1.63
2022-10-19T15:56:32.945Z,2.03
2022-10-19T15:59:01.461Z,1.90
2022-10-19T16:01:30.601Z,2.03
2022-10-19T16:03:58.080Z,2.15
2022-10-19T16:06:27.739Z,1.83
2022-10-19T16:08:54.643Z,2.30
2022-10-19T16:11:23.083Z,1.85
2022-10-19T16:13:50.088Z,2.10
2022-10-19T16:16:28.522Z,2.42
2022-10-19T16:18:55.841Z,2.63
2022-10-19T16:21:25.686Z,2.65
2022-10-19T16:23:52.795Z,2.30
2022-10-19T16:26:20.076Z,2.50
2022-10-19T16:28:48.585Z,2.60
2022-10-19T16:31:15.824Z,2.38
2022-10-19T16:33:42.614Z,2.63
2022-10-19T16:36:10.887Z,2.90
2022-10-19T16:38:37.621Z,2.92
2022-10-19T16:41:06.458Z,2.65
2022-10-19T16:43:33.648Z,2.88
2022-10-19T16:46:02.113Z,2.50
2022-10-19T16:48:29.107Z,2.50
2022-10-19T16:51:08.251Z,2.80
2022-10-19T16:53:35.569Z,2.72
2022-10-19T16:56:07.874Z,2.80
2022-10-19T16:58:36.394Z,2.15
2022-10-19T17:01:20.164Z,2.15
2022-10-19T17:03:48.302Z,2.63
2022-10-19T17:06:15.697Z,2.60
2022-10-19T17:11:35.405Z,2.17
2022-10-19T17:14:04.776Z,2.08
2022-10-19T17:16:33.155Z,2.58
2022-10-19T17:19:01.979Z,2.55
2022-10-19T17:21:32.227Z,2.05
2022-10-19T17:24:01.611Z,2.55
2022-10-19T17:26:30.579Z,2.50
2022-10-19T17:29:00.969Z,2.90
2022-10-19T17:31:28.180Z,2.85
2022-10-19T17:33:55.094Z,2.60
2022-10-19T17:36:28.196Z,2.45
2022-10-19T17:38:56.725Z,2.55
2022-10-19T17:41:24.072Z,2.70
2022-10-19T17:43:54.046Z,2.17
2022-10-19T17:46:26.129Z,2.60
2022-10-19T17:48:52.825Z,3.08
2022-10-19T17:51:23.712Z,2.25
2022-10-19T17:53:51.203Z,2.28
2022-10-19T17:56:19.863Z,2.17
2022-10-19T17:58:46.802Z,2.58
2022-10-19T18:01:15.871Z,2.70
2022-10-19T18:03:42.859Z,2.63
2022-10-19T18:06:21.797Z,2.40
2022-10-19T18:08:51.315Z,2.85
2022-10-19T18:11:21.825Z,2.88
2022-10-19T18:13:49.185Z,2.60
2022-10-19T18:16:24.597Z,2.35
2022-10-19T18:18:53.227Z,2.60
2022-10-19T18:21:22.773Z,3.08
2022-10-19T18:23:49.504Z,2.53
2022-10-19T18:26:20.239Z,2.83
2022-10-19T18:28:48.958Z,3.20
2022-10-19T18:31:22.519Z,2.90
2022-10-19T18:33:55.230Z,2.80
2022-10-19T18:36:21.905Z,3.08
2022-10-19T18:38:53.480Z,3.28
2022-10-19T18:41:20.931Z,3.15
2022-10-19T18:43:55.603Z,3.95
2022-10-19T18:46:23.791Z,3.90
2022-10-19T18:48:50.481Z,3.70
2022-10-19T18:51:18.264Z,3.78
2022-10-19T18:53:48.232Z,3.10
2022-10-19T18:56:17.826Z,2.83
2022-10-19T18:58:44.687Z,3.10
2022-10-19T19:01:19.562Z,3.65
2022-10-19T19:03:49.556Z,3.50
2022-10-19T19:06:37.620Z,3.42
2022-10-19T19:09:07.579Z,3.20
2022-10-19T19:11:37.002Z,3.35
2022-10-19T19:14:15.498Z,4.07
2022-10-19T19:16:44.943Z,3.50
2022-10-19T19:19:13.694Z,3.97
2022-10-19T19:21:43.984Z,3.88
2022-10-19T19:24:13.776Z,3.53
2022-10-19T19:26:44.086Z,3.72
2022-10-19T19:29:11.326Z,3.70
2022-10-19T19:31:39.334Z,4.28
2022-10-19T19:34:07.728Z,3.90
2022-10-19T19:37:08.864Z,4.10
2022-10-19T19:39:37.315Z,3.90
2022-10-19T19:42:05.282Z,3.90
2022-10-19T19:44:32.976Z,4.13
2022-10-19T19:47:01.234Z,3.95
2022-10-19T19:49:36.735Z,4.28
2022-10-19T19:52:03.948Z,4.18
2022-10-19T19:54:38.833Z,3.95
2022-10-19T19:57:12.302Z,4.45
2022-10-19T19:59:40.334Z,4.03
2022-10-19T20:02:07.128Z,4.22
2022-10-19T20:04:33.931Z,4.20
2022-10-19T20:07:00.556Z,4.55
2022-10-19T20:09:27.387Z,4.03
2022-10-19T20:11:54.059Z,4.05
2022-10-19T20:14:20.836Z,4.05
2022-10-19T20:16:47.458Z,4.55
2022-10-19T20:19:16.727Z,4.47
2022-10-19T20:21:43.470Z,4.18
2022-10-19T20:24:10.226Z,4.88
2022-10-19T20:26:36.946Z,5.55
2022-10-19T20:32:01.494Z,5.25
2022-10-19T20:34:29.098Z,4.68
2022-10-19T20:36:55.748Z,4.40
2022-10-19T20:39:23.495Z,5.22
2022-10-19T20:41:51.740Z,5.25
2022-10-19T20:44:18.390Z,5.28
2022-10-19T20:46:45.166Z,6.60
2022-10-19T20:49:12.324Z,5.80
2022-10-19T20:51:39.050Z,5.80
2022-10-19T20:56:55.245Z,5.88
2022-10-19T20:59:25.234Z,5.78
2022-10-19T21:01:53.411Z,6.00
2022-10-19T21:04:20.272Z,5.65
2022-10-19T21:06:49.305Z,5.35
2022-10-19T21:09:21.366Z,5.65
2022-10-19T21:11:50.216Z,5.78
2022-10-19T21:14:22.453Z,5.22
2022-10-19T21:16:52.206Z,6.15
2022-10-19T21:19:21.454Z,6.03
2022-10-19T21:21:50.891Z,5.57
2022-10-19T21:24:19.647Z,5.35
2022-10-19T21:26:48.929Z,5.65
2022-10-19T21:29:19.831Z,5.85
2022-10-19T21:31:49.481Z,5.03
2022-10-19T21:34:18.720Z,5.68
2022-10-19T21:36:45.354Z,5.13
2022-10-19T21:39:12.106Z,5.32
2022-10-19T21:41:38.862Z,5.35
2022-10-19T21:44:05.578Z,5.32
2022-10-19T21:46:32.218Z,4.90
2022-10-19T21:48:58.876Z,5.50
2022-10-19T21:51:42.379Z,5.35
2022-10-19T21:54:12.982Z,5.63
2022-10-19T21:56:39.937Z,4.90
2022-10-19T21:59:06.794Z,4.88
2022-10-19T22:01:38.524Z,5.22
2022-10-19T22:04:11.116Z,5.78
2022-10-19T22:06:37.737Z,5.07
2022-10-19T22:09:06.007Z,5.47
2022-10-19T22:11:33.365Z,5.82
2022-10-19T22:14:01.738Z,5.45
2022-10-19T22:16:29.642Z,5.63
2022-10-19T22:18:58.540Z,5.68
2022-10-19T22:21:30.236Z,5.63
2022-10-19T22:24:01.450Z,5.82
2022-10-19T22:26:31.097Z,6.30
2022-10-19T22:28:59.548Z,5.63
2022-10-19T22:31:28.698Z,5.97
2022-10-19T22:33:57.880Z,6.03
2022-10-19T22:36:24.534Z,6.20
2022-10-19T22:38:51.273Z,5.60
2022-10-19T22:41:17.948Z,6.35
2022-10-19T22:43:44.665Z,5.50
2022-10-19T22:46:13.343Z,5.50
2022-10-19T22:48:39.976Z,5.72
2022-10-19T22:51:06.747Z,5.40
2022-10-19T22:53:35.163Z,4.88
2022-10-19T22:56:01.920Z,6.03
2022-10-19T22:58:30.541Z,5.47
2022-10-19T23:01:10.888Z,6.18
2022-10-19T23:03:40.601Z,5.68
2022-10-19T23:06:12.968Z,5.00
2022-10-19T23:08:39.937Z,5.70
2022-10-19T23:11:06.870Z,5.72
2022-10-19T23:13:33.546Z,5.13
2022-10-19T23:16:00.264Z,5.78
2022-10-19T23:18:26.888Z,5.88
2022-10-19T23:20:58.293Z,5.50
2022-10-19T23:23:25.604Z,5.35
2022-10-19T23:26:09.939Z,5.38
2022-10-19T23:28:38.032Z,5.70
2022-10-19T23:31:07.542Z,5.53
2022-10-19T23:33:34.558Z,5.38
2022-10-19T23:36:06.076Z,5.60
2022-10-19T23:38:32.715Z,5.13
2022-10-19T23:40:59.334Z,5.35
2022-10-19T23:43:26.000Z,5.65
2022-10-19T23:45:52.655Z,5.35
2022-10-19T23:48:19.522Z,5.65
2022-10-19T23:50:46.618Z,5.55
2022-10-19T23:53:13.427Z,4.95
2022-10-19T23:55:40.053Z,5.25
2022-10-19T23:58:06.754Z,5.28
